Time,TemperatureF,DewpointF,PressureIn,WindDirection,WindDirectionDegrees,WindSpeedMPH,WindSpeedGustMPH,Humidity,HourlyPrecipIn,Conditions,Clouds,dailyrainin,SoftwareType,DateUTC
2013-03-01 00:00:00,51.2,-99.9,30.28,SSW,195,0.5,4.4,-999,0.02,,,0.01,homebrew,2013-03-01 08:00:00,
2013-03-01 00:05:00,51.2,-99.9,30.28,SSW,199,1.0,4.3,-999,0.02,,,0.01,homebrew,2013-03-01 08:05:00,
2013-03-01 00:10:00,51.2,-99.9,30.28,SSE,168,0.8,5.1,-999,0.02,,,0.01,homebrew,2013-03-01 08:10:00,
2013-03-01 00:15:00,51.2,-99.9,30.28,SSW,197,2.3,5.2,-999,0.03,,,0.02,homebrew,2013-03-01 08:15:00,
2013-03-01 00:20:00,51.2,-99.9,30.28,SW,216,1.9,5.5,-999,0.04,,,0.03,homebrew,2013-03-01 08:20:00,
2013-03-01 00:25:00,51.2,-99.9,30.29,SSW,207,0.9,7.5,-999,0.03,,,0.03,homebrew,2013-03-01 08:25:00,
2013-03-01 00:30:00,51.0,-99.9,30.29,SW,214,1.0,4.7,-999,0.03,,,0.03,homebrew,2013-03-01 08:30:00,
2013-03-01 00:35:00,50.9,-99.9,30.29,South,176,0.2,4.2,-999,0.04,,,0.04,homebrew,2013-03-01 08:35:00,
2013-03-01 00:40:00,50.7,-99.9,30.28,South,185,1.3,3.3,-999,0.04,,,0.04,homebrew,2013-03-01 08:40:00,
2013-03-01 00:45:00,50.7,-99.9,30.28,SSW,192,0.3,4.2,-999,0.05,,,0.05,homebrew,2013-03-01 08:45:00,
2013-03-01 00:50:00,50.7,-99.9,30.28,South,175,0.6,0.0,-999,0.05,,,0.05,homebrew,2013-03-01 08:50:00,
2013-03-01 00:55:00,50.7,-99.9,30.28,South,181,2.3,4.0,-999,0.04,,,0.05,homebrew,2013-03-01 08:55:00,
2013-03-01 01:05:00,51.0,-99.9,30.28,South,180,2.2,11.6,-999,0.04,,,0.05,homebrew,2013-03-01 09:05:00,
2013-03-01 01:10:00,51.0,-99.9,30.28,SSW,201,2.4,9.3,-999,0.04,,,0.06,homebrew,2013-03-01 09:10:00,
2013-03-01 01:15:00,51.0,-99.9,30.29,SSE,160,0.7,7.6,-999,0.04,,,0.06,homebrew,2013-03-01 09:15:00,
2013-03-01 01:20:00,51.0,-99.9,30.29,SSW,198,2.6,4.2,-999,0.03,,,0.06,homebrew,2013-03-01 09:20:00,
2013-03-01 01:25:00,51.0,-99.9,30.29,South,186,2.9,6.1,-999,0.03,,,0.06,homebrew,2013-03-01 09:25:00,
2013-03-01 01:30:00,51.0,-99.9,30.28,SSW,192,3.4,10.6,-999,0.03,,,0.06,homebrew,2013-03-01 09:30:00,
2013-03-01 01:35:00,51.0,-99.9,30.29,SSW,194,3.8,6.6,-999,0.02,,,0.06,homebrew,2013-03-01 09:35:00,
2013-03-01 01:40:00,51.1,-99.9,30.30,SSW,193,2.6,10.3,-999,0.02,,,0.06,homebrew,2013-03-01 09:40:00,
2013-03-01 01:45:00,51.1,-99.9,30.29,SSW,212,3.7,7.5,-999,0.01,,,0.06,homebrew,2013-03-01 09:45:00,
2013-03-01 01:55:00,51.1,-99.9,30.29,SSW,204,4.6,9.7,-999,0.01,,,0.06,homebrew,2013-03-01 09:55:00,
2013-03-01 02:00:00,51.1,-99.9,30.29,SSW,199,4.4,10.3,-999,0.01,,,0.06,homebrew,2013-03-01 10:00:00,
2013-03-01 02:05:00,51.2,-99.9,30.29,South,185,4.4,11.6,-999,0.01,,,0.06,homebrew,2013-03-01 10:05:00,
2013-03-01 02:10:00,51.3,-99.9,30.29,SSW,206,4.9,13.4,-999,0.00,,,0.06,homebrew,2013-03-01 10:10:00,
2013-03-01 02:15:00,51.3,-99.9,30.29,SSW,200,4.8,11.1,-999,0.00,,,0.06,homebrew,2013-03-01 10:15:00,
2013-03-01 02:20:00,51.3,-99.9,30.29,SSW,194,3.7,10.9,-999,0.00,,,0.06,homebrew,2013-03-01 10:20:00,
2013-03-01 02:25:00,51.3,-99.9,30.29,SSW,202,4.9,9.9,-999,0.00,,,0.06,homebrew,2013-03-01 10:25:00,
2013-03-01 02:30:00,51.4,-99.9,30.29,SSW,194,4.4,11.2,-999,0.00,,,0.06,homebrew,2013-03-01 10:30:00,
2013-03-01 02:35:00,51.4,-99.9,30.29,SSW,204,5.4,15.4,-999,0.00,,,0.06,homebrew,2013-03-01 10:35:00,
2013-03-01 02:40:00,51.4,-99.9,30.29,SSW,192,4.2,14.9,-999,0.00,,,0.06,homebrew,2013-03-01 10:40:00,
2013-03-01 02:45:00,51.4,-99.9,30.29,SSW,202,4.3,12.1,-999,0.00,,,0.06,homebrew,2013-03-01 10:45:00,
2013-03-01 02:50:00,51.4,-99.9,30.29,SSW,201,4.4,10.6,-999,0.00,,,0.06,homebrew,2013-03-01 10:50:00,
2013-03-01 03:00:00,51.4,-99.9,30.29,SSW,202,4.7,9.3,-999,0.00,,,0.06,homebrew,2013-03-01 11:00:00,
2013-03-01 03:05:00,51.6,-99.9,30.29,SSW,195,3.9,15.7,-999,0.00,,,0.06,homebrew,2013-03-01 11:05:00,
2013-03-01 03:15:00,51.7,-99.9,30.29,SSW,201,5.2,10.3,-999,0.00,,,0.06,homebrew,2013-03-01 11:15:00,
2013-03-01 03:20:00,51.7,-99.9,30.29,SSW,195,4.3,10.1,-999,0.00,,,0.06,homebrew,2013-03-01 11:20:00,
2013-03-01 03:25:00,51.8,-99.9,30.29,SSW,193,3.8,10.9,-999,0.00,,,0.06,homebrew,2013-03-01 11:25:00,
2013-03-01 03:30:00,51.8,-99.9,30.28,SSW,192,4.5,11.1,-999,0.00,,,0.06,homebrew,2013-03-01 11:30:00,
2013-03-01 03:40:00,52.0,-99.9,30.28,South,191,5.8,13.0,-999,0.00,,,0.06,homebrew,2013-03-01 11:40:00,
2013-03-01 03:45:00,52.1,-99.9,30.28,SSW,192,4.7,17.1,-999,0.00,,,0.06,homebrew,2013-03-01 11:45:00,
2013-03-01 03:50:00,52.2,-99.9,30.28,South,190,4.7,11.2,-999,0.00,,,0.06,homebrew,2013-03-01 11:50:00,
2013-03-01 03:55:00,52.2,-99.9,30.28,SSW,194,4.4,11.4,-999,0.00,,,0.06,homebrew,2013-03-01 11:55:00,
2013-03-01 04:00:00,52.3,-99.9,30.29,SSW,196,4.4,20.4,-999,0.01,,,0.07,homebrew,2013-03-01 12:00:00,
2013-03-01 04:05:00,52.3,-99.9,30.29,SSW,200,3.3,9.9,-999,0.01,,,0.07,homebrew,2013-03-01 12:05:00,
2013-03-01 04:10:00,52.3,-99.9,30.29,SSW,192,3.1,11.4,-999,0.01,,,0.07,homebrew,2013-03-01 12:10:00,
2013-03-01 04:15:00,52.4,-99.9,30.29,SSW,203,3.0,8.3,-999,0.01,,,0.07,homebrew,2013-03-01 12:15:00,
2013-03-01 04:25:00,52.4,-99.9,30.29,SSW,194,2.5,10.4,-999,0.01,,,0.07,homebrew,2013-03-01 12:25:00,
2013-03-01 04:30:00,52.3,-99.9,30.28,SSW,199,2.9,6.0,-999,0.01,,,0.07,homebrew,2013-03-01 12:30:00,
2013-03-01 04:35:00,52.4,-99.9,30.28,SSW,193,5.2,9.1,-999,0.01,,,0.07,homebrew,2013-03-01 12:35:00,
2013-03-01 04:40:00,52.4,-99.9,30.28,SSW,196,4.3,16.5,-999,0.01,,,0.07,homebrew,2013-03-01 12:40:00,
2013-03-01 04:45:00,52.4,-99.9,30.28,South,186,2.7,9.7,-999,0.01,,,0.07,homebrew,2013-03-01 12:45:00,
2013-03-01 04:50:00,52.3,-99.9,30.28,SSW,192,4.0,7.3,-999,0.01,,,0.07,homebrew,2013-03-01 12:50:00,
2013-03-01 04:55:00,52.4,-99.9,30.28,SSW,192,3.4,11.1,-999,0.01,,,0.07,homebrew,2013-03-01 12:55:00,
2013-03-01 05:00:00,52.5,-99.9,30.28,SSW,201,3.3,10.4,-999,0.00,,,0.07,homebrew,2013-03-01 13:00:00,
2013-03-01 05:05:00,52.6,-99.9,30.28,South,187,3.4,11.4,-999,0.00,,,0.07,homebrew,2013-03-01 13:05:00,
2013-03-01 05:15:00,52.6,-99.9,30.28,SSW,203,4.2,10.1,-999,0.00,,,0.07,homebrew,2013-03-01 13:15:00,
2013-03-01 05:20:00,52.6,-99.9,30.28,SSW,201,3.4,15.1,-999,0.00,,,0.07,homebrew,2013-03-01 13:20:00,
2013-03-01 05:25:00,52.4,-99.9,30.28,SSW,205,4.2,6.3,-999,0.00,,,0.07,homebrew,2013-03-01 13:25:00,
2013-03-01 05:30:00,52.4,-99.9,30.28,SSW,204,4.3,12.6,-999,0.00,,,0.07,homebrew,2013-03-01 13:30:00,
2013-03-01 05:35:00,52.5,-99.9,30.28,SSW,208,5.2,12.6,-999,0.00,,,0.07,homebrew,2013-03-01 13:35:00,
2013-03-01 05:40:00,52.6,-99.9,30.28,SSW,201,5.0,10.5,-999,0.00,,,0.07,homebrew,2013-03-01 13:40:00,
2013-03-01 05:45:00,52.5,-99.9,30.28,SSW,199,4.5,10.4,-999,0.00,,,0.07,homebrew,2013-03-01 13:45:00,
2013-03-01 05:50:00,52.4,-99.9,30.29,SSW,197,3.5,10.6,-999,0.00,,,0.07,homebrew,2013-03-01 13:50:00,
2013-03-01 05:55:00,52.5,-99.9,30.28,SSW,203,4.3,11.6,-999,0.00,,,0.07,homebrew,2013-03-01 13:55:00,
2013-03-01 06:05:00,52.7,-99.9,30.28,SSW,198,5.1,11.8,-999,0.00,,,0.07,homebrew,2013-03-01 14:05:00,
2013-03-01 06:10:00,52.8,-99.9,30.28,SSW,200,5.6,18.0,-999,0.00,,,0.07,homebrew,2013-03-01 14:10:00,
2013-03-01 06:15:00,52.9,-99.9,30.28,SSW,198,5.6,15.4,-999,0.00,,,0.07,homebrew,2013-03-01 14:15:00,
2013-03-01 06:20:00,52.9,-99.9,30.28,SSW,200,4.3,16.1,-999,0.00,,,0.07,homebrew,2013-03-01 14:20:00,
2013-03-01 06:25:00,53.0,-99.9,30.28,SSW,197,5.6,19.0,-999,0.00,,,0.07,homebrew,2013-03-01 14:25:00,
2013-03-01 06:30:00,53.1,-99.9,30.29,SSW,200,5.3,12.6,-999,0.00,,,0.07,homebrew,2013-03-01 14:30:00,
2013-03-01 06:35:00,53.2,-99.9,30.28,SSW,210,5.5,14.9,-999,0.00,,,0.07,homebrew,2013-03-01 14:35:00,
2013-03-01 06:40:00,53.4,-99.9,30.28,SSW,200,6.8,14.5,-999,0.00,,,0.07,homebrew,2013-03-01 14:40:00,
2013-03-01 06:45:00,53.4,-99.9,30.29,SSW,199,6.3,18.2,-999,0.00,,,0.07,homebrew,2013-03-01 14:45:00,
2013-03-01 06:55:00,53.4,-99.9,30.28,SSW,196,5.4,19.0,-999,0.00,,,0.07,homebrew,2013-03-01 14:55:00,
2013-03-01 07:00:00,53.4,-99.9,30.29,SSW,201,5.8,10.3,-999,0.00,,,0.07,homebrew,2013-03-01 15:00:00,
2013-03-01 07:05:00,53.5,-99.9,30.29,SSW,201,6.3,15.2,-999,0.00,,,0.07,homebrew,2013-03-01 15:05:00,
2013-03-01 07:10:00,53.4,-99.9,30.29,SSW,200,5.9,18.2,-999,0.00,,,0.07,homebrew,2013-03-01 15:10:00,
2013-03-01 07:15:00,53.5,-99.9,30.29,SSW,196,5.7,15.3,-999,0.00,,,0.07,homebrew,2013-03-01 15:15:00,
2013-03-01 07:20:00,53.6,-99.9,30.29,SSW,207,5.0,15.8,-999,0.00,,,0.07,homebrew,2013-03-01 15:20:00,
2013-03-01 07:25:00,53.5,-99.9,30.30,SSW,207,4.3,12.9,-999,0.00,,,0.07,homebrew,2013-03-01 15:25:00,
2013-03-01 07:30:00,53.5,-99.9,30.30,SSW,206,5.6,12.6,-999,0.00,,,0.07,homebrew,2013-03-01 15:30:00,
2013-03-01 07:35:00,53.5,-99.9,30.30,SSW,203,4.3,13.8,-999,0.00,,,0.07,homebrew,2013-03-01 15:35:00,
2013-03-01 07:45:00,53.5,-99.9,30.30,SSW,209,5.8,17.7,-999,0.00,,,0.07,homebrew,2013-03-01 15:45:00,
2013-03-01 07:50:00,53.5,-99.9,30.30,SSW,201,4.4,11.1,-999,0.00,,,0.07,homebrew,2013-03-01 15:50:00,
2013-03-01 07:55:00,53.6,-99.9,30.30,SSW,206,5.6,10.8,-999,0.00,,,0.07,homebrew,2013-03-01 15:55:00,
2013-03-01 08:00:00,53.7,-99.9,30.30,SSW,206,5.2,13.0,-999,0.00,,,0.07,homebrew,2013-03-01 16:00:00,
2013-03-01 08:05:00,53.7,-99.9,30.31,SW,214,5.1,18.5,-999,0.00,,,0.07,homebrew,2013-03-01 16:05:00,
2013-03-01 08:10:00,53.6,-99.9,30.31,SSW,207,5.2,12.1,-999,0.00,,,0.07,homebrew,2013-03-01 16:10:00,
2013-03-01 08:15:00,53.5,-99.9,30.31,SSW,202,4.2,12.6,-999,0.00,,,0.07,homebrew,2013-03-01 16:15:00,
2013-03-01 08:20:00,53.3,-99.9,30.31,SSW,211,4.5,10.2,-999,0.00,,,0.07,homebrew,2013-03-01 16:20:00,
2013-03-01 08:25:00,53.2,-99.9,30.31,SSW,205,4.4,11.3,-999,0.00,,,0.07,homebrew,2013-03-01 16:25:00,
2013-03-01 08:35:00,52.9,-99.9,30.32,SW,229,4.1,8.9,-999,0.00,,,0.07,homebrew,2013-03-01 16:35:00,
2013-03-01 08:40:00,52.4,-99.9,30.32,SW,224,4.7,10.1,-999,0.00,,,0.07,homebrew,2013-03-01 16:40:00,
2013-03-01 08:45:00,52.1,-99.9,30.32,SW,222,4.2,9.0,-999,0.00,,,0.07,homebrew,2013-03-01 16:45:00,
2013-03-01 08:50:00,52.1,-99.9,30.32,SW,220,4.3,10.7,-999,0.00,,,0.07,homebrew,2013-03-01 16:50:00,
2013-03-01 08:55:00,52.0,-99.9,30.32,SW,220,2.7,9.7,-999,0.00,,,0.07,homebrew,2013-03-01 16:55:00,
2013-03-01 09:00:00,51.9,-99.9,30.32,SW,225,3.1,8.5,-999,0.00,,,0.07,homebrew,2013-03-01 17:00:00,
2013-03-01 09:05:00,51.9,-99.9,30.33,SW,234,1.9,7.4,-999,0.00,,,0.07,homebrew,2013-03-01 17:05:00,
2013-03-01 09:10:00,51.7,-99.9,30.33,SW,236,3.4,7.3,-999,0.00,,,0.07,homebrew,2013-03-01 17:10:00,
2013-03-01 09:15:00,51.5,-99.9,30.33,SSW,208,2.7,7.8,-999,0.00,,,0.07,homebrew,2013-03-01 17:15:00,
2013-03-01 09:20:00,51.4,-99.9,30.33,SSW,200,2.5,8.2,-999,0.00,,,0.07,homebrew,2013-03-01 17:20:00,
2013-03-01 09:25:00,51.4,-99.9,30.33,SSW,210,2.5,6.6,-999,0.00,,,0.07,homebrew,2013-03-01 17:25:00,
2013-03-01 09:30:00,51.4,-99.9,30.33,SW,218,4.5,8.6,-999,0.00,,,0.07,homebrew,2013-03-01 17:30:00,
2013-03-01 09:35:00,51.4,-99.9,30.32,SSW,212,3.6,13.2,-999,0.00,,,0.07,homebrew,2013-03-01 17:35:00,
2013-03-01 09:40:00,51.5,-99.9,30.32,SSW,209,2.8,8.5,-999,0.00,,,0.07,homebrew,2013-03-01 17:40:00,
2013-03-01 09:45:00,51.6,-99.9,30.33,SSW,200,2.8,7.1,-999,0.00,,,0.07,homebrew,2013-03-01 17:45:00,
2013-03-01 09:50:00,51.8,-99.9,30.33,SW,214,4.0,8.8,-999,0.00,,,0.07,homebrew,2013-03-01 17:50:00,
2013-03-01 09:55:00,52.0,-99.9,30.33,SSW,212,3.1,10.2,-999,0.00,,,0.07,homebrew,2013-03-01 17:55:00,
2013-03-01 10:00:00,52.1,-99.9,30.33,SW,218,2.9,13.9,-999,0.00,,,0.07,homebrew,2013-03-01 18:00:00,
2013-03-01 10:05:00,52.3,-99.9,30.33,SSW,203,3.0,11.4,-999,0.00,,,0.07,homebrew,2013-03-01 18:05:00,
2013-03-01 10:15:00,52.7,-99.9,30.33,South,178,2.0,10.9,-999,0.00,,,0.07,homebrew,2013-03-01 18:15:00,
2013-03-01 10:20:00,52.8,-99.9,30.33,SSW,204,3.3,5.7,-999,0.00,,,0.07,homebrew,2013-03-01 18:20:00,
2013-03-01 10:25:00,53.0,-99.9,30.33,SSW,210,2.4,8.2,-999,0.00,,,0.07,homebrew,2013-03-01 18:25:00,
2013-03-01 10:30:00,53.1,-99.9,30.33,SW,216,2.1,7.1,-999,0.00,,,0.07,homebrew,2013-03-01 18:30:00,
2013-03-01 10:35:00,53.2,-99.9,30.33,South,170,1.1,7.5,-999,0.00,,,0.07,homebrew,2013-03-01 18:35:00,
2013-03-01 10:40:00,53.3,-99.9,30.33,SSW,211,3.2,3.8,-999,0.00,,,0.07,homebrew,2013-03-01 18:40:00,
2013-03-01 10:45:00,53.4,-99.9,30.33,SSW,210,2.3,10.1,-999,0.00,,,0.07,homebrew,2013-03-01 18:45:00,
2013-03-01 10:50:00,53.6,-99.9,30.33,South,191,2.8,10.4,-999,0.00,,,0.07,homebrew,2013-03-01 18:50:00,
2013-03-01 10:55:00,53.8,-99.9,30.33,South,190,2.5,7.6,-999,0.00,,,0.07,homebrew,2013-03-01 18:55:00,
2013-03-01 11:00:00,54.0,-99.9,30.33,SW,227,1.7,8.2,-999,0.00,,,0.07,homebrew,2013-03-01 19:00:00,
2013-03-01 11:05:00,54.3,-99.9,30.33,South,190,2.6,6.1,-999,0.00,,,0.07,homebrew,2013-03-01 19:05:00,
2013-03-01 11:10:00,54.4,-99.9,30.33,SSW,212,3.0,8.3,-999,0.00,,,0.07,homebrew,2013-03-01 19:10:00,
2013-03-01 11:20:00,54.5,-99.9,30.33,SSW,207,1.6,7.3,-999,0.00,,,0.07,homebrew,2013-03-01 19:20:00,
2013-03-01 11:25:00,54.7,-99.9,30.33,South,191,0.6,4.8,-999,0.00,,,0.07,homebrew,2013-03-01 19:25:00,
2013-03-01 11:30:00,54.9,-99.9,30.33,South,184,1.9,3.3,-999,0.00,,,0.07,homebrew,2013-03-01 19:30:00,
2013-03-01 11:35:00,55.0,-99.9,30.33,SSW,211,3.6,5.9,-999,0.00,,,0.07,homebrew,2013-03-01 19:35:00,
2013-03-01 11:40:00,55.1,-99.9,30.33,SSW,194,1.9,9.4,-999,0.00,,,0.07,homebrew,2013-03-01 19:40:00,
2013-03-01 11:45:00,55.2,-99.9,30.33,SSW,196,3.0,11.2,-999,0.00,,,0.07,homebrew,2013-03-01 19:45:00,
2013-03-01 11:50:00,55.2,-99.9,30.34,SSW,195,3.9,7.4,-999,0.00,,,0.07,homebrew,2013-03-01 19:50:00,
2013-03-01 11:55:00,55.3,-99.9,30.34,SSW,204,3.1,12.3,-999,0.00,,,0.07,homebrew,2013-03-01 19:55:00,
2013-03-01 12:00:00,55.5,-99.9,30.34,SSW,207,3.9,7.0,-999,0.00,,,0.07,homebrew,2013-03-01 20:00:00,
2013-03-01 12:10:00,55.5,-99.9,30.33,SSW,213,4.2,11.2,-999,0.00,,,0.07,homebrew,2013-03-01 20:10:00,
2013-03-01 12:15:00,55.6,-99.9,30.33,SW,220,4.0,11.6,-999,0.00,,,0.07,homebrew,2013-03-01 20:15:00,
2013-03-01 12:20:00,55.6,-99.9,30.32,SSW,208,2.2,9.4,-999,0.00,,,0.07,homebrew,2013-03-01 20:20:00,
2013-03-01 12:25:00,55.7,-99.9,30.32,SW,214,3.9,6.1,-999,0.00,,,0.07,homebrew,2013-03-01 20:25:00,
2013-03-01 12:30:00,55.9,-99.9,30.32,SW,221,3.8,9.3,-999,0.00,,,0.07,homebrew,2013-03-01 20:30:00,
2013-03-01 12:35:00,55.9,-99.9,30.32,SSW,210,4.0,9.8,-999,0.00,,,0.07,homebrew,2013-03-01 20:35:00,
2013-03-01 12:40:00,56.3,-99.9,30.32,SSW,204,5.1,8.3,-999,0.00,,,0.07,homebrew,2013-03-01 20:40:00,
2013-03-01 12:45:00,56.7,-99.9,30.31,SSW,202,4.4,14.7,-999,0.00,,,0.07,homebrew,2013-03-01 20:45:00,
2013-03-01 12:50:00,56.9,-99.9,30.31,SSW,197,3.8,11.9,-999,0.00,,,0.07,homebrew,2013-03-01 20:50:00,
2013-03-01 13:00:00,56.9,-99.9,30.31,SSW,211,4.8,16.8,-999,0.00,,,0.07,homebrew,2013-03-01 21:00:00,
2013-03-01 13:05:00,56.8,-99.9,30.31,SW,216,4.4,12.7,-999,0.00,,,0.07,homebrew,2013-03-01 21:05:00,
2013-03-01 13:10:00,56.6,-99.9,30.31,SSW,201,3.9,11.1,-999,0.00,,,0.07,homebrew,2013-03-01 21:10:00,
2013-03-01 13:15:00,56.6,-99.9,30.31,SSW,213,4.5,12.0,-999,0.00,,,0.07,homebrew,2013-03-01 21:15:00,
2013-03-01 13:20:00,56.7,-99.9,30.31,SSW,201,4.3,11.6,-999,0.00,,,0.07,homebrew,2013-03-01 21:20:00,
2013-03-01 13:25:00,56.8,-99.9,30.30,SSW,210,5.4,11.3,-999,0.00,,,0.07,homebrew,2013-03-01 21:25:00,
2013-03-01 13:30:00,57.0,-99.9,30.30,SSW,211,4.3,15.2,-999,0.00,,,0.07,homebrew,2013-03-01 21:30:00,
2013-03-01 13:35:00,57.0,-99.9,30.30,SW,218,6.2,11.6,-999,0.00,,,0.07,homebrew,2013-03-01 21:35:00,
2013-03-01 13:40:00,56.9,-99.9,30.31,SW,215,5.4,13.0,-999,0.00,,,0.07,homebrew,2013-03-01 21:40:00,
2013-03-01 13:50:00,56.9,-99.9,30.30,SSW,208,4.9,10.6,-999,0.00,,,0.07,homebrew,2013-03-01 21:50:00,
2013-03-01 13:55:00,57.0,-99.9,30.30,SSW,212,4.2,13.4,-999,0.00,,,0.07,homebrew,2013-03-01 21:55:00,
2013-03-01 14:05:00,57.4,-99.9,30.30,SW,214,4.4,12.1,-999,0.00,,,0.07,homebrew,2013-03-01 22:05:00,
2013-03-01 14:10:00,57.3,-99.9,30.30,SW,214,5.2,11.7,-999,0.00,,,0.07,homebrew,2013-03-01 22:10:00,
2013-03-01 14:15:00,57.2,-99.9,30.30,SSW,209,3.2,12.1,-999,0.00,,,0.07,homebrew,2013-03-01 22:15:00,
2013-03-01 14:20:00,57.2,-99.9,30.30,SW,220,4.4,10.4,-999,0.00,,,0.07,homebrew,2013-03-01 22:20:00,
2013-03-01 14:25:00,57.1,-99.9,30.30,SSW,208,4.6,11.6,-999,0.00,,,0.07,homebrew,2013-03-01 22:25:00,
2013-03-01 14:30:00,56.9,-99.9,30.30,SSW,212,4.6,10.1,-999,0.00,,,0.07,homebrew,2013-03-01 22:30:00,
2013-03-01 14:40:00,56.6,-99.9,30.30,SW,214,4.1,11.7,-999,0.00,,,0.07,homebrew,2013-03-01 22:40:00,
2013-03-01 14:45:00,56.4,-99.9,30.30,SSW,206,3.1,10.7,-999,0.00,,,0.07,homebrew,2013-03-01 22:45:00,
2013-03-01 14:50:00,56.4,-99.9,30.30,SW,214,3.3,8.6,-999,0.00,,,0.07,homebrew,2013-03-01 22:50:00,
2013-03-01 14:55:00,56.4,-99.9,30.30,SW,214,4.2,7.9,-999,0.00,,,0.07,homebrew,2013-03-01 22:55:00,
2013-03-01 15:00:00,56.6,-99.9,30.29,SW,214,4.0,10.7,-999,0.00,,,0.07,homebrew,2013-03-01 23:00:00,
2013-03-01 15:05:00,56.9,-99.9,30.29,SSW,213,3.2,10.6,-999,0.00,,,0.07,homebrew,2013-03-01 23:05:00,
2013-03-01 15:10:00,57.1,-99.9,30.29,SSW,204,2.8,9.0,-999,0.00,,,0.07,homebrew,2013-03-01 23:10:00,
2013-03-01 15:15:00,57.3,-99.9,30.29,SSW,205,3.7,7.4,-999,0.00,,,0.07,homebrew,2013-03-01 23:15:00,
2013-03-01 15:20:00,57.4,-99.9,30.29,SSW,205,3.9,9.9,-999,0.00,,,0.07,homebrew,2013-03-01 23:20:00,
2013-03-01 15:25:00,57.4,-99.9,30.29,SSW,206,4.6,13.8,-999,0.00,,,0.07,homebrew,2013-03-01 23:25:00,
2013-03-01 15:30:00,57.3,-99.9,30.29,SSW,205,3.2,18.6,-999,0.00,,,0.07,homebrew,2013-03-01 23:30:00,
2013-03-01 15:35:00,57.4,-99.9,30.29,SSW,203,4.0,9.7,-999,0.00,,,0.07,homebrew,2013-03-01 23:35:00,
2013-03-01 15:45:00,57.6,-99.9,30.29,SSW,212,4.7,8.3,-999,0.00,,,0.07,homebrew,2013-03-01 23:45:00,
2013-03-01 15:50:00,57.5,-99.9,30.29,SSW,208,3.9,12.9,-999,0.00,,,0.07,homebrew,2013-03-01 23:50:00,
2013-03-01 15:55:00,57.5,-99.9,30.29,SSW,204,4.7,12.1,-999,0.00,,,0.07,homebrew,2013-03-01 23:55:00,
2013-03-01 16:00:00,57.2,-99.9,30.29,SSW,210,5.4,13.2,-999,0.00,,,0.07,homebrew,2013-03-02 00:00:00,
2013-03-01 16:05:00,57.2,-99.9,30.29,SSW,210,4.3,10.9,-999,0.00,,,0.07,homebrew,2013-03-02 00:05:00,
2013-03-01 16:10:00,57.0,-99.9,30.29,SW,215,5.4,13.9,-999,0.00,,,0.07,homebrew,2013-03-02 00:10:00,
2013-03-01 16:15:00,57.0,-99.9,30.29,SSW,207,4.5,11.2,-999,0.00,,,0.07,homebrew,2013-03-02 00:15:00,
2013-03-01 16:20:00,56.9,-99.9,30.29,SSW,212,6.2,15.3,-999,0.00,,,0.07,homebrew,2013-03-02 00:20:00,
2013-03-01 16:25:00,56.2,-99.9,30.29,SSW,206,5.0,18.2,-999,0.00,,,0.07,homebrew,2013-03-02 00:25:00,
2013-03-01 16:35:00,56.0,-99.9,30.29,SSW,204,3.2,7.3,-999,0.00,,,0.07,homebrew,2013-03-02 00:35:00,
2013-03-01 16:40:00,56.1,-99.9,30.29,SW,222,3.9,9.2,-999,0.00,,,0.07,homebrew,2013-03-02 00:40:00,
2013-03-01 16:45:00,56.0,-99.9,30.29,SSW,203,5.0,11.5,-999,0.00,,,0.07,homebrew,2013-03-02 00:45:00,
2013-03-01 16:50:00,55.8,-99.9,30.28,SSW,201,3.9,13.5,-999,0.00,,,0.07,homebrew,2013-03-02 00:50:00,
2013-03-01 16:55:00,55.6,-99.9,30.28,SSW,211,3.6,10.0,-999,0.00,,,0.07,homebrew,2013-03-02 00:55:00,
2013-03-01 17:00:00,55.6,-99.9,30.28,SSW,213,3.7,9.6,-999,0.00,,,0.07,homebrew,2013-03-02 01:00:00,
2013-03-01 17:05:00,55.6,-99.9,30.28,SSW,204,2.9,11.1,-999,0.00,,,0.07,homebrew,2013-03-02 01:05:00,
2013-03-01 17:10:00,55.4,-99.9,30.28,SSW,208,3.6,9.6,-999,0.00,,,0.07,homebrew,2013-03-02 01:10:00,
2013-03-01 17:15:00,55.3,-99.9,30.29,SSW,212,4.2,10.6,-999,0.00,,,0.07,homebrew,2013-03-02 01:15:00,
2013-03-01 17:25:00,55.1,-99.9,30.29,SSW,212,3.6,11.4,-999,0.00,,,0.07,homebrew,2013-03-02 01:25:00,
2013-03-01 17:30:00,55.0,-99.9,30.29,SSW,205,3.2,9.6,-999,0.00,,,0.07,homebrew,2013-03-02 01:30:00,
2013-03-01 17:35:00,55.0,-99.9,30.29,SSW,207,2.9,10.5,-999,0.00,,,0.07,homebrew,2013-03-02 01:35:00,
2013-03-01 17:40:00,54.9,-99.9,30.29,SSW,208,3.2,8.8,-999,0.00,,,0.07,homebrew,2013-03-02 01:40:00,
2013-03-01 17:45:00,54.9,-99.9,30.29,SSW,210,3.2,6.5,-999,0.00,,,0.07,homebrew,2013-03-02 01:45:00,
2013-03-01 17:50:00,54.9,-99.9,30.28,SSW,200,3.5,9.2,-999,0.00,,,0.07,homebrew,2013-03-02 01:50:00,
2013-03-01 17:55:00,54.8,-99.9,30.28,SSW,198,2.6,8.8,-999,0.00,,,0.07,homebrew,2013-03-02 01:55:00,
2013-03-01 18:00:00,54.8,-99.9,30.29,SSW,197,2.4,8.5,-999,0.00,,,0.07,homebrew,2013-03-02 02:00:00,
2013-03-01 18:05:00,54.7,-99.9,30.29,SSW,212,2.8,8.9,-999,0.00,,,0.07,homebrew,2013-03-02 02:05:00,
2013-03-01 18:10:00,54.7,-99.9,30.29,SSW,202,2.9,6.3,-999,0.00,,,0.07,homebrew,2013-03-02 02:10:00,
2013-03-01 18:15:00,54.6,-99.9,30.29,SSW,204,2.4,7.5,-999,0.00,,,0.07,homebrew,2013-03-02 02:15:00,
2013-03-01 18:20:00,54.6,-99.9,30.29,South,190,2.6,7.6,-999,0.00,,,0.07,homebrew,2013-03-02 02:20:00,
2013-03-01 18:30:00,54.6,-99.9,30.29,SSE,157,0.4,3.9,-999,0.00,,,0.07,homebrew,2013-03-02 02:30:00,
2013-03-01 18:35:00,54.6,-99.9,30.30,SSE,165,0.8,2.9,-999,0.00,,,0.07,homebrew,2013-03-02 02:35:00,
2013-03-01 18:45:00,54.6,-99.9,30.29,South,190,1.3,7.7,-999,0.00,,,0.07,homebrew,2013-03-02 02:45:00,
2013-03-01 18:50:00,54.6,-99.9,30.29,SW,214,2.3,6.3,-999,0.00,,,0.07,homebrew,2013-03-02 02:50:00,
2013-03-01 18:55:00,54.5,-99.9,30.29,South,189,1.9,7.5,-999,0.00,,,0.07,homebrew,2013-03-02 02:55:00,
2013-03-01 19:00:00,54.4,-99.9,30.29,South,186,2.1,6.0,-999,0.00,,,0.07,homebrew,2013-03-02 03:00:00,
2013-03-01 19:10:00,54.3,-99.9,30.29,South,191,0.4,4.5,-999,0.00,,,0.07,homebrew,2013-03-02 03:10:00,
2013-03-01 19:20:00,54.2,-99.9,30.29,SSE,164,0.6,3.5,-999,0.00,,,0.07,homebrew,2013-03-02 03:20:00,
2013-03-01 19:25:00,54.1,-99.9,30.29,SSE,160,0.3,2.2,-999,0.00,,,0.07,homebrew,2013-03-02 03:25:00,
2013-03-01 19:35:00,54.0,-99.9,30.29,South,190,0.4,2.4,-999,0.00,,,0.07,homebrew,2013-03-02 03:35:00,
2013-03-01 19:45:00,53.8,-99.9,30.29,SSW,194,0.7,4.8,-999,0.00,,,0.07,homebrew,2013-03-02 03:45:00,
2013-03-01 19:50:00,53.9,-99.9,30.29,SSE,150,1.5,3.7,-999,0.00,,,0.07,homebrew,2013-03-02 03:50:00,
2013-03-01 19:55:00,53.9,-99.9,30.29,SSE,168,1.5,3.0,-999,0.00,,,0.07,homebrew,2013-03-02 03:55:00,
2013-03-01 20:00:00,53.9,-99.9,30.28,SSE,149,1.0,5.3,-999,0.00,,,0.07,homebrew,2013-03-02 04:00:00,
2013-03-01 20:05:00,53.9,-99.9,30.28,South,184,1.7,5.7,-999,0.00,,,0.07,homebrew,2013-03-02 04:05:00,
2013-03-01 20:15:00,54.0,-99.9,30.28,SSW,200,1.0,4.8,-999,0.00,,,0.07,homebrew,2013-03-02 04:15:00,
2013-03-01 20:25:00,53.9,-99.9,30.28,SSW,213,1.9,4.4,-999,0.00,,,0.07,homebrew,2013-03-02 04:25:00,
2013-03-01 20:35:00,53.8,-99.9,30.27,SSW,198,1.1,5.4,-999,0.00,,,0.07,homebrew,2013-03-02 04:35:00,
2013-03-01 20:40:00,53.7,-99.9,30.27,South,178,0.0,3.2,-999,0.00,,,0.07,homebrew,2013-03-02 04:40:00,
2013-03-01 20:45:00,53.4,-99.9,30.27,SSE,163,0.4,2.7,-999,0.00,,,0.07,homebrew,2013-03-02 04:45:00,
2013-03-01 20:50:00,53.3,-99.9,30.28,SSW,207,0.9,1.5,-999,0.00,,,0.07,homebrew,2013-03-02 04:50:00,
2013-03-01 20:55:00,53.2,-99.9,30.27,West,268,1.4,3.2,-999,0.00,,,0.07,homebrew,2013-03-02 04:55:00,
2013-03-01 21:05:00,53.0,-99.9,30.28,West,280,0.3,1.7,-999,0.00,,,0.07,homebrew,2013-03-02 05:05:00,
2013-03-01 21:10:00,53.0,-99.9,30.27,West,261,1.6,1.9,-999,0.00,,,0.07,homebrew,2013-03-02 05:10:00,
2013-03-01 21:15:00,53.1,-99.9,30.27,WSW,244,1.5,4.4,-999,0.00,,,0.07,homebrew,2013-03-02 05:15:00,
2013-03-01 21:20:00,53.0,-99.9,30.27,WSW,250,1.1,4.0,-999,0.00,,,0.07,homebrew,2013-03-02 05:20:00,
2013-03-01 21:30:00,52.8,-99.9,30.27,SSW,206,0.4,2.1,-999,0.00,,,0.07,homebrew,2013-03-02 05:30:00,
2013-03-01 21:35:00,52.8,-99.9,30.27,SW,218,0.6,2.1,-999,0.00,,,0.07,homebrew,2013-03-02 05:35:00,
2013-03-01 21:40:00,52.6,-99.9,30.27,SSW,196,0.1,3.0,-999,0.00,,,0.07,homebrew,2013-03-02 05:40:00,
2013-03-01 21:45:00,52.4,-99.9,30.28,WSW,249,0.4,0.6,-999,0.00,,,0.07,homebrew,2013-03-02 05:45:00,
2013-03-01 21:50:00,52.3,-99.9,30.27,West,271,0.0,1.9,-999,0.00,,,0.07,homebrew,2013-03-02 05:50:00,
2013-03-01 21:55:00,52.2,-99.9,30.27,West,271,0.0,0.0,-999,0.00,,,0.07,homebrew,2013-03-02 05:55:00,
2013-03-01 22:00:00,52.0,-99.9,30.27,West,271,0.0,0.0,-999,0.00,,,0.07,homebrew,2013-03-02 06:00:00,
2013-03-01 22:05:00,51.8,-99.9,30.27,West,271,0.0,0.0,-999,0.00,,,0.07,homebrew,2013-03-02 06:05:00,
2013-03-01 22:10:00,51.7,-99.9,30.27,WSW,253,0.2,0.0,-999,0.00,,,0.07,homebrew,2013-03-02 06:10:00,
2013-03-01 22:20:00,51.5,-99.9,30.27,South,182,0.9,1.4,-999,0.00,,,0.07,homebrew,2013-03-02 06:20:00,
2013-03-01 22:25:00,51.6,-99.9,30.28,South,188,0.1,3.5,-999,0.00,,,0.07,homebrew,2013-03-02 06:25:00,
2013-03-01 22:30:00,51.7,-99.9,30.28,South,187,0.0,0.0,-999,0.00,,,0.07,homebrew,2013-03-02 06:30:00,
2013-03-01 22:35:00,51.7,-99.9,30.28,South,187,0.0,0.0,-999,0.00,,,0.07,homebrew,2013-03-02 06:35:00,
2013-03-01 22:40:00,51.7,-99.9,30.28,South,187,0.0,0.6,-999,0.00,,,0.07,homebrew,2013-03-02 06:40:00,
2013-03-01 22:45:00,51.6,-99.9,30.28,South,187,0.0,0.0,-999,0.00,,,0.07,homebrew,2013-03-02 06:45:00,
2013-03-01 22:50:00,51.4,-99.9,30.27,South,187,0.0,0.0,-999,0.00,,,0.07,homebrew,2013-03-02 06:50:00,
2013-03-01 22:55:00,51.3,-99.9,30.27,South,187,0.0,0.0,-999,0.00,,,0.07,homebrew,2013-03-02 06:55:00,
2013-03-01 23:00:00,51.3,-99.9,30.27,South,187,0.0,0.0,-999,0.00,,,0.07,homebrew,2013-03-02 07:00:00,
2013-03-01 23:05:00,51.5,-99.9,30.27,South,187,0.0,0.0,-999,0.00,,,0.07,homebrew,2013-03-02 07:05:00,
2013-03-01 23:10:00,51.7,-99.9,30.27,South,187,0.0,0.0,-999,0.00,,,0.07,homebrew,2013-03-02 07:10:00,
2013-03-01 23:15:00,51.8,-99.9,30.26,South,187,0.0,0.0,-999,0.00,,,0.07,homebrew,2013-03-02 07:15:00,
2013-03-01 23:25:00,51.8,-99.9,30.26,South,182,0.5,2.4,-999,0.00,,,0.07,homebrew,2013-03-02 07:25:00,
2013-03-01 23:30:00,51.9,-99.9,30.26,South,169,0.2,3.0,-999,0.00,,,0.07,homebrew,2013-03-02 07:30:00,
2013-03-01 23:40:00,51.8,-99.9,30.26,SW,217,0.3,2.6,-999,0.00,,,0.07,homebrew,2013-03-02 07:40:00,
2013-03-01 23:45:00,51.7,-99.9,30.26,SSE,148,0.4,2.5,-999,0.00,,,0.00,homebrew,2013-03-02 07:45:00,
2013-03-01 23:50:00,51.6,-99.9,30.26,SSE,151,1.1,2.8,-999,0.00,,,0.00,homebrew,2013-03-02 07:50:00,
2013-03-01 23:55:00,51.7,-99.9,30.26,SSE,160,0.3,5.7,-999,0.00,,,0.00,homebrew,2013-03-02 07:55:00,